Time;durP1;ratioP1;P1;durP2;ratioP2;P2;SDS_P1;SDS_P2;PMS_P1;PMS_P2;Temp;Humidity;BMP_temperature;BMP_pressure;BME280_temperature;BME280_humidity;BME280_pressure;Samples;Min_cycle;Max_cycle;Signal;HPM_P1;HPM_P2
2022/11/10 00:00:46;;;;;;;8.00;2.80;;;13.80;82.10;;;;;;5028909;28;20434;-72
2022/11/10 00:03:34;;;;;;;10.37;2.30;;;13.80;82.20;;;;;;5026584;28;20459;-71
2022/11/10 00:06:20;;;;;;;7.20;3.00;;;13.70;82.20;;;;;;5028853;28;20598;-70
2022/11/10 00:09:07;;;;;;;6.93;2.33;;;13.70;82.10;;;;;;5028329;28;20503;-70
2022/11/10 00:11:55;;;;;;;5.40;2.43;;;13.70;82.10;;;;;;5028369;28;20457;-73
2022/11/10 00:17:46;;;;;;;15.00;2.87;;;13.60;82.10;;;;;;5027119;28;20444;-75
2022/11/10 00:20:32;;;;;;;11.13;2.83;;;13.60;82.20;;;;;;5027121;28;20458;-71
2022/11/10 00:23:18;;;;;;;8.10;2.53;;;13.50;82.20;;;;;;5025559;28;20456;-72
2022/11/10 00:26:11;;;;;;;7.77;2.20;;;13.50;82.10;;;;;;5027402;28;20459;-69
2022/11/10 00:28:59;;;;;;;6.50;2.30;;;13.50;82.20;;;;;;5029312;28;20514;-70
2022/11/10 00:31:45;;;;;;;5.50;2.47;;;13.50;82.10;;;;;;5026990;28;20972;-72
2022/11/10 00:34:32;;;;;;;5.00;2.30;;;13.40;82.00;;;;;;5023731;28;20455;-71
2022/11/10 00:37:18;;;;;;;9.43;2.63;;;13.40;82.10;;;;;;5025878;28;20473;-71
2022/11/10 00:40:06;;;;;;;6.23;2.63;;;13.40;82.20;;;;;;5029628;28;21192;-73
2022/11/10 00:42:52;;;;;;;7.03;2.03;;;13.40;82.10;;;;;;5027558;28;20824;-71
2022/11/10 00:45:43;;;;;;;10.20;3.00;;;13.30;82.00;;;;;;5024648;28;20530;-75
2022/11/10 00:48:29;;;;;;;8.50;3.20;;;13.30;81.90;;;;;;5028097;28;20457;-74
2022/11/10 00:51:21;;;;;;;8.10;2.77;;;13.30;81.90;;;;;;5027418;28;20468;-72
2022/11/10 00:54:07;;;;;;;11.60;5.00;;;13.30;82.00;;;;;;5030309;28;20562;-71
2022/11/10 00:56:54;;;;;;;12.80;3.30;;;13.20;81.90;;;;;;5027103;28;20597;-70
2022/11/10 00:59:41;;;;;;;5.40;2.37;;;13.20;81.80;;;;;;5023895;28;20544;-70
2022/11/10 01:02:29;;;;;;;8.90;3.50;;;13.20;81.70;;;;;;5027962;28;20541;-72
2022/11/10 01:05:16;;;;;;;36.70;17.37;;;13.10;81.70;;;;;;5026115;28;20526;-71
2022/11/10 01:08:02;;;;;;;30.63;13.53;;;13.10;81.60;;;;;;5026137;28;20831;-73
2022/11/10 01:10:49;;;;;;;18.60;9.70;;;13.00;81.50;;;;;;5028250;28;20484;-71
2022/11/10 01:13:36;;;;;;;43.30;16.20;;;12.90;81.50;;;;;;5023477;28;20459;-70
2022/11/10 01:16:24;;;;;;;22.27;10.03;;;12.90;81.50;;;;;;5028099;28;20851;-71
2022/11/10 01:19:12;;;;;;;20.87;12.00;;;12.80;81.50;;;;;;5025248;28;20460;-72
2022/11/10 01:21:59;;;;;;;19.50;10.23;;;12.80;81.30;;;;;;5027171;28;21104;-71
2022/11/10 01:24:46;;;;;;;64.40;28.57;;;12.70;81.30;;;;;;5024337;28;20451;-71
2022/11/10 01:27:33;;;;;;;31.60;15.30;;;12.60;81.00;;;;;;5025611;28;20474;-72
2022/11/10 01:30:20;;;;;;;183.03;78.23;;;12.50;81.10;;;;;;5025851;28;20578;-72
2022/11/10 01:33:06;;;;;;;96.93;42.90;;;12.40;81.20;;;;;;5028459;28;20467;-70
2022/11/10 01:35:54;;;;;;;81.50;36.77;;;12.30;81.00;;;;;;5020867;28;20490;-71
2022/11/10 01:38:43;;;;;;;56.70;26.17;;;12.30;81.20;;;;;;5021672;28;20463;-72
2022/11/10 01:41:29;;;;;;;26.20;10.90;;;12.20;81.40;;;;;;5025800;28;20451;-71
2022/11/10 01:44:18;;;;;;;33.63;15.87;;;12.20;81.20;;;;;;5026687;28;20459;-72
2022/11/10 01:47:05;;;;;;;38.80;16.40;;;12.20;81.20;;;;;;5025343;28;20459;-72
2022/11/10 01:49:51;;;;;;;35.83;16.23;;;12.20;81.20;;;;;;5029568;28;21060;-71
2022/11/10 01:52:40;;;;;;;30.00;12.87;;;12.20;81.30;;;;;;5025803;28;20458;-70
2022/11/10 01:55:28;;;;;;;44.17;19.93;;;12.10;80.80;;;;;;5026526;28;20451;-72
2022/11/10 01:58:16;;;;;;;34.40;14.97;;;12.00;80.70;;;;;;5027323;28;20451;-72
2022/11/10 02:01:03;;;;;;;28.67;13.40;;;11.90;80.90;;;;;;5025241;28;20455;-71
2022/11/10 02:03:51;;;;;;;22.67;9.20;;;11.90;81.10;;;;;;5027700;28;20470;-71
2022/11/10 02:06:40;;;;;;;15.77;7.23;;;11.90;81.10;;;;;;5020872;28;20602;-71
2022/11/10 02:09:28;;;;;;;10.50;4.47;;;11.90;81.10;;;;;;5023118;28;20474;-71
2022/11/10 02:12:15;;;;;;;12.07;5.23;;;11.90;80.80;;;;;;5023701;28;21185;-71
2022/11/10 02:15:02;;;;;;;11.67;4.50;;;11.90;80.80;;;;;;5026899;28;20590;-72
2022/11/10 02:17:48;;;;;;;14.20;6.30;;;11.80;80.60;;;;;;5023763;28;20534;-72
2022/11/10 02:20:35;;;;;;;10.63;5.00;;;11.80;80.50;;;;;;5020354;28;20510;-72
2022/11/10 02:23:46;;;;;;;11.80;3.40;;;11.70;80.60;;;;;;5026014;28;21034;-72
2022/11/10 02:26:34;;;;;;;8.13;2.50;;;11.70;80.70;;;;;;5027215;28;20491;-73
2022/11/10 02:29:22;;;;;;;8.53;2.63;;;11.70;80.80;;;;;;5026508;28;20448;-71
2022/11/10 02:32:08;;;;;;;5.57;2.60;;;11.70;80.80;;;;;;5024843;28;20463;-71
2022/11/10 02:34:55;;;;;;;6.43;2.70;;;11.70;80.80;;;;;;5026921;28;20490;-71
2022/11/10 02:37:41;;;;;;;7.23;2.70;;;11.70;80.80;;;;;;5025464;28;20467;-72
2022/11/10 02:40:29;;;;;;;9.83;2.83;;;11.70;80.70;;;;;;5024988;28;20517;-71
2022/11/10 02:43:18;;;;;;;9.63;2.70;;;11.70;80.70;;;;;;5027726;28;20518;-72
2022/11/10 02:46:05;;;;;;;5.53;2.17;;;11.70;80.70;;;;;;5022465;28;20467;-71
2022/11/10 02:48:51;;;;;;;5.67;2.23;;;11.70;80.70;;;;;;5023591;28;20530;-71
2022/11/10 02:51:38;;;;;;;5.40;2.33;;;11.60;80.60;;;;;;5025503;28;20554;-71
2022/11/10 02:54:24;;;;;;;6.87;2.50;;;11.60;80.60;;;;;;5030336;28;20463;-71
2022/11/10 02:57:12;;;;;;;6.23;2.93;;;11.60;80.50;;;;;;5025454;28;20488;-71
2022/11/10 02:59:58;;;;;;;6.30;2.97;;;11.50;80.50;;;;;;5024639;28;20988;-71
2022/11/10 03:02:45;;;;;;;8.60;2.63;;;11.50;80.50;;;;;;5028437;28;20458;-71
2022/11/10 03:05:32;;;;;;;8.70;2.80;;;11.50;80.50;;;;;;5028061;28;20466;-71
2022/11/10 03:08:18;;;;;;;9.90;2.53;;;11.50;80.50;;;;;;5026183;28;20565;-72
2022/11/10 03:11:05;;;;;;;7.93;2.50;;;11.50;80.40;;;;;;5022206;28;20475;-71
2022/11/10 03:13:53;;;;;;;7.07;2.90;;;11.40;80.50;;;;;;5028180;28;21078;-71
2022/11/10 03:16:47;;;;;;;9.30;2.23;;;11.40;80.30;;;;;;5027891;28;20542;-71
2022/11/10 03:19:34;;;;;;;8.53;4.97;;;11.40;80.30;;;;;;5024189;28;20504;-71
2022/11/10 03:22:20;;;;;;;12.83;5.77;;;11.30;80.20;;;;;;5026932;28;20590;-72
2022/11/10 03:25:07;;;;;;;10.20;4.37;;;11.20;80.10;;;;;;5019705;28;20443;-72
2022/11/10 03:27:54;;;;;;;11.80;5.40;;;11.20;80.40;;;;;;5022364;28;20475;-72
2022/11/10 03:30:42;;;;;;;11.90;3.80;;;11.20;80.40;;;;;;5028037;28;20503;-73
2022/11/10 03:33:28;;;;;;;7.53;3.60;;;11.20;80.60;;;;;;5030346;28;20490;-71
2022/11/10 03:36:15;;;;;;;9.03;3.20;;;11.20;80.80;;;;;;5029623;28;20472;-71
2022/11/10 03:39:01;;;;;;;11.33;3.60;;;11.30;80.90;;;;;;5027227;28;20993;-71
2022/11/10 03:41:47;;;;;;;7.87;3.33;;;11.40;81.00;;;;;;5030495;28;20978;-71
2022/11/10 03:44:34;;;;;;;8.47;2.60;;;11.40;81.10;;;;;;5028649;28;20979;-71
2022/11/10 03:47:22;;;;;;;5.87;2.83;;;11.50;81.00;;;;;;5030131;28;20490;-71
2022/11/10 03:50:09;;;;;;;6.03;2.33;;;11.50;81.00;;;;;;5023741;28;20443;-72
2022/11/10 03:52:55;;;;;;;6.93;2.30;;;11.50;80.80;;;;;;5028512;28;20533;-72
2022/11/10 03:55:42;;;;;;;8.30;2.53;;;11.50;80.80;;;;;;5030301;28;20486;-71
2022/11/10 03:58:28;;;;;;;5.80;2.90;;;11.50;80.80;;;;;;5028999;28;20523;-71
2022/11/10 04:01:15;;;;;;;6.67;2.53;;;11.50;80.80;;;;;;5029950;28;20467;-71
2022/11/10 04:04:03;;;;;;;12.83;2.47;;;11.40;80.70;;;;;;5025785;28;20447;-71
2022/11/10 04:09:53;;;;;;;7.50;2.73;;;11.40;80.80;;;;;;5026902;28;20963;-71
2022/11/10 04:15:44;;;;;;;13.63;3.20;;;11.40;80.90;;;;;;5027725;28;20858;-72
2022/11/10 04:18:31;;;;;;;5.87;2.77;;;11.30;80.80;;;;;;5030625;28;20490;-72
2022/11/10 04:21:19;;;;;;;12.80;3.10;;;11.30;80.80;;;;;;5024665;28;20443;-72
2022/11/10 04:24:06;;;;;;;8.83;3.60;;;11.30;80.90;;;;;;5025906;28;20463;-72
2022/11/10 04:26:52;;;;;;;9.20;2.97;;;11.30;80.90;;;;;;5028309;28;20844;-72
2022/11/10 04:29:39;;;;;;;8.83;3.17;;;11.30;80.80;;;;;;5026789;28;21028;-73
2022/11/10 04:32:25;;;;;;;12.73;3.80;;;11.30;80.80;;;;;;5026696;28;20643;-72
2022/11/10 04:35:12;;;;;;;9.87;2.80;;;11.30;80.90;;;;;;5027061;28;20577;-71
2022/11/10 04:38:00;;;;;;;8.23;2.97;;;11.30;80.90;;;;;;5034538;28;20454;-70
2022/11/10 04:40:46;;;;;;;11.27;3.10;;;11.30;80.80;;;;;;5025417;28;21035;-70
2022/11/10 04:43:33;;;;;;;6.40;2.50;;;11.30;80.70;;;;;;5026856;28;20458;-70
2022/11/10 04:46:22;;;;;;;8.20;3.00;;;11.30;80.60;;;;;;5033533;28;20466;-71
2022/11/10 04:49:10;;;;;;;14.60;3.23;;;11.20;80.70;;;;;;5025468;28;20444;-71
2022/11/10 04:51:57;;;;;;;8.93;3.70;;;11.20;80.80;;;;;;5026370;28;20470;-71
2022/11/10 04:54:45;;;;;;;7.30;3.03;;;11.20;80.80;;;;;;5026945;28;20444;-72
2022/11/10 04:57:31;;;;;;;4.70;2.10;;;11.20;80.80;;;;;;5027529;28;20485;-71
2022/11/10 05:00:19;;;;;;;5.70;2.13;;;11.20;80.80;;;;;;5028297;28;20451;-71
2022/11/10 05:03:09;;;;;;;6.17;2.60;;;11.20;80.60;;;;;;5027083;28;20451;-71
2022/11/10 05:05:55;;;;;;;4.40;2.10;;;11.10;80.50;;;;;;5028603;28;20855;-71
2022/11/10 05:08:43;;;;;;;9.80;2.43;;;11.10;80.40;;;;;;5022980;28;20460;-70
2022/11/10 05:11:30;;;;;;;4.70;2.47;;;11.00;80.30;;;;;;5025624;28;21083;-71
2022/11/10 05:14:17;;;;;;;7.67;3.10;;;11.00;80.40;;;;;;5031322;28;20517;-72
2022/11/10 05:17:03;;;;;;;8.63;3.23;;;10.90;80.40;;;;;;5026497;28;20841;-71
2022/11/10 05:19:49;;;;;;;6.80;3.27;;;10.90;80.50;;;;;;5027375;28;20451;-70
2022/11/10 05:22:36;;;;;;;7.43;4.10;;;10.90;80.50;;;;;;5026624;28;20498;-70
2022/11/10 05:25:22;;;;;;;8.80;3.97;;;10.90;80.60;;;;;;5029650;28;20810;-69
2022/11/10 05:28:11;;;;;;;11.53;4.50;;;10.90;80.80;;;;;;5032335;28;20594;-69
2022/11/10 05:30:58;;;;;;;12.13;4.47;;;11.00;81.00;;;;;;5026471;28;20459;-71
2022/11/10 05:33:45;;;;;;;11.20;4.20;;;11.10;81.10;;;;;;5027109;28;20505;-72
2022/11/10 05:36:32;;;;;;;10.00;4.60;;;11.10;81.20;;;;;;5026030;28;20506;-69
2022/11/10 05:39:18;;;;;;;8.70;4.60;;;11.10;81.30;;;;;;5022440;28;20451;-70
2022/11/10 05:42:05;;;;;;;10.83;4.50;;;11.20;81.40;;;;;;5027027;28;20459;-71
2022/11/10 05:44:53;;;;;;;9.00;4.17;;;11.20;81.40;;;;;;5028910;28;21148;-71
2022/11/10 05:47:39;;;;;;;9.67;4.80;;;11.30;81.40;;;;;;5026410;28;20471;-71
2022/11/10 05:50:26;;;;;;;13.90;4.50;;;11.30;81.50;;;;;;5027175;28;20467;-73
2022/11/10 05:53:13;;;;;;;8.13;3.90;;;11.30;81.50;;;;;;5023367;28;21015;-71
2022/11/10 05:55:59;;;;;;;7.30;3.70;;;11.30;81.60;;;;;;5027127;28;20471;-73
2022/11/10 05:58:46;;;;;;;11.60;4.73;;;11.40;81.60;;;;;;5029239;28;20541;-70
2022/11/10 06:01:40;;;;;;;8.30;4.20;;;11.40;81.70;;;;;;5022275;28;20451;-72
2022/11/10 06:04:26;;;;;;;7.40;4.70;;;11.40;81.70;;;;;;5026921;28;20455;-70
2022/11/10 06:07:13;;;;;;;11.33;4.80;;;11.40;81.70;;;;;;5023861;28;20467;-71
2022/11/10 06:10:00;;;;;;;9.13;3.87;;;11.40;81.80;;;;;;5020534;28;20791;-70
2022/11/10 06:12:46;;;;;;;8.30;4.50;;;11.40;81.80;;;;;;5023722;28;20491;-70
2022/11/10 06:15:33;;;;;;;6.70;3.73;;;11.50;81.80;;;;;;5019857;28;20932;-72
2022/11/10 06:18:21;;;;;;;11.23;4.37;;;11.50;81.80;;;;;;5023348;28;20477;-70
2022/11/10 06:21:08;;;;;;;11.60;4.80;;;11.50;81.80;;;;;;5022651;28;21008;-70
2022/11/10 06:23:54;;;;;;;12.03;5.07;;;11.50;81.80;;;;;;5029301;28;20541;-70
2022/11/10 06:26:41;;;;;;;9.80;4.73;;;11.50;81.80;;;;;;5023870;28;20498;-71
2022/11/10 06:29:27;;;;;;;14.40;5.20;;;11.50;81.80;;;;;;5021383;28;20479;-71
2022/11/10 06:32:14;;;;;;;8.53;4.80;;;11.50;81.70;;;;;;5021457;28;20467;-72
2022/11/10 06:35:01;;;;;;;8.37;3.77;;;11.50;81.80;;;;;;5026733;28;20609;-71
2022/11/10 06:38:00;;;;;;;7.43;3.97;;;11.50;81.70;;;;;;5031967;28;21007;-72
2022/11/10 06:40:47;;;;;;;8.43;3.60;;;11.40;81.60;;;;;;5021364;28;20521;-70
2022/11/10 06:43:33;;;;;;;12.73;4.27;;;11.40;81.60;;;;;;5020433;28;20451;-70
2022/11/10 06:46:19;;;;;;;8.10;4.73;;;11.40;81.70;;;;;;5025333;28;20555;-69
2022/11/10 06:49:06;;;;;;;13.57;4.10;;;11.30;81.80;;;;;;5021098;28;20448;-70
2022/11/10 06:51:53;;;;;;;11.00;5.30;;;11.30;81.80;;;;;;5023069;28;20466;-70
2022/11/10 06:54:40;;;;;;;10.40;5.27;;;11.30;81.90;;;;;;5022171;28;20593;-72
2022/11/10 06:57:27;;;;;;;11.33;5.13;;;11.40;82.00;;;;;;5022181;28;20486;-71
2022/11/10 07:00:15;;;;;;;10.07;4.90;;;11.40;81.90;;;;;;5023234;28;20451;-70
2022/11/10 07:03:02;;;;;;;14.30;5.50;;;11.40;81.90;;;;;;5022495;28;20447;-72
2022/11/10 07:05:49;;;;;;;10.80;5.70;;;11.40;81.90;;;;;;5022834;28;20475;-71
2022/11/10 07:08:37;;;;;;;10.07;5.73;;;11.40;81.90;;;;;;5028450;28;21423;-70
2022/11/10 07:11:23;;;;;;;12.57;6.37;;;11.40;81.90;;;;;;5026281;28;21031;-70
2022/11/10 07:14:10;;;;;;;13.00;5.43;;;11.30;81.90;;;;;;5024156;28;20454;-70
2022/11/10 07:16:56;;;;;;;11.50;5.63;;;11.30;82.00;;;;;;5029393;28;20501;-71
2022/11/10 07:19:43;;;;;;;14.97;6.07;;;11.30;82.00;;;;;;5020004;28;20459;-71
2022/11/10 07:22:29;;;;;;;13.33;6.20;;;11.30;82.10;;;;;;5021971;28;20606;-71
2022/11/10 07:25:17;;;;;;;13.53;6.37;;;11.30;82.10;;;;;;5020721;28;20448;-71
2022/11/10 07:28:06;;;;;;;11.50;6.57;;;11.30;82.20;;;;;;5020214;28;20498;-70
2022/11/10 07:30:53;;;;;;;13.67;7.30;;;11.40;82.20;;;;;;5026146;28;20475;-70
2022/11/10 07:33:40;;;;;;;11.57;6.47;;;11.40;82.30;;;;;;5027018;28;20522;-71
2022/11/10 07:36:27;;;;;;;11.27;6.00;;;11.40;82.20;;;;;;5026845;28;20549;-71
2022/11/10 07:39:14;;;;;;;14.10;6.73;;;11.40;82.20;;;;;;5022768;28;20459;-71
2022/11/10 07:42:03;;;;;;;15.03;6.87;;;11.40;82.20;;;;;;5025125;28;20479;-72
2022/11/10 07:44:49;;;;;;;12.17;6.57;;;11.40;82.30;;;;;;5023794;28;20459;-71
2022/11/10 07:47:36;;;;;;;11.80;6.63;;;11.40;82.30;;;;;;5021542;28;20476;-72
2022/11/10 07:50:22;;;;;;;10.93;6.43;;;11.40;82.40;;;;;;5024077;28;20454;-70
2022/11/10 07:53:11;;;;;;;11.90;6.10;;;11.40;82.40;;;;;;5020878;28;21262;-71
2022/11/10 07:55:58;;;;;;;16.00;6.20;;;11.40;82.50;;;;;;5025649;28;20482;-71
2022/11/10 07:58:47;;;;;;;12.20;6.67;;;11.40;82.50;;;;;;5017769;28;20537;-69
2022/11/10 08:01:33;;;;;;;13.57;6.43;;;11.50;82.50;;;;;;5021905;28;20454;-71
2022/11/10 08:04:20;;;;;;;14.83;6.73;;;11.50;82.60;;;;;;5025208;28;20451;-71
2022/11/10 08:07:07;;;;;;;13.13;6.90;;;11.50;82.60;;;;;;5023749;28;20475;-71
2022/11/10 08:09:54;;;;;;;18.77;6.93;;;11.50;82.70;;;;;;5022674;28;20443;-72
2022/11/10 08:12:40;;;;;;;14.67;6.43;;;11.60;82.70;;;;;;5021550;28;20467;-72
2022/11/10 08:15:29;;;;;;;13.93;6.40;;;11.60;82.70;;;;;;5024609;28;20452;-71
2022/11/10 08:18:18;;;;;;;16.90;6.73;;;11.60;82.70;;;;;;5028928;28;20502;-70
2022/11/10 08:21:05;;;;;;;14.67;7.43;;;11.60;82.70;;;;;;5026010;28;20455;-70
2022/11/10 08:23:51;;;;;;;16.87;7.40;;;11.70;82.80;;;;;;5028745;28;20960;-70
2022/11/10 08:26:38;;;;;;;13.10;6.70;;;11.70;82.80;;;;;;5025779;28;20996;-69
2022/11/10 08:29:24;;;;;;;15.87;7.07;;;11.70;82.80;;;;;;5026492;28;20450;-71
2022/11/10 08:32:12;;;;;;;16.27;7.80;;;11.70;82.80;;;;;;5028125;28;20447;-71
2022/11/10 08:34:59;;;;;;;17.03;6.97;;;11.70;82.90;;;;;;5027803;28;20478;-72
2022/11/10 08:37:45;;;;;;;16.77;7.30;;;11.70;82.90;;;;;;5028134;28;20454;-70
2022/11/10 08:40:32;;;;;;;13.60;6.30;;;11.80;83.00;;;;;;5026926;28;20455;-71
2022/11/10 08:43:18;;;;;;;12.40;6.27;;;11.80;83.00;;;;;;5024577;28;20957;-71
2022/11/10 08:46:06;;;;;;;13.03;6.10;;;11.80;83.00;;;;;;5027446;28;20486;-70
2022/11/10 08:48:53;;;;;;;12.73;6.30;;;11.90;83.00;;;;;;5027407;28;20467;-70
2022/11/10 08:51:40;;;;;;;14.23;6.87;;;11.90;83.10;;;;;;5024824;28;20462;-71
2022/11/10 08:54:26;;;;;;;13.70;7.00;;;11.90;83.10;;;;;;5027808;28;20583;-70
2022/11/10 08:57:13;;;;;;;12.13;6.63;;;11.90;83.10;;;;;;5026146;28;20471;-71
2022/11/10 08:59:59;;;;;;;13.40;5.87;;;11.90;83.30;;;;;;5027637;28;21024;-70
2022/11/10 09:02:46;;;;;;;10.37;6.10;;;11.90;83.30;;;;;;5026509;28;20439;-70
2022/11/10 09:05:34;;;;;;;15.57;6.10;;;12.00;83.30;;;;;;5025634;28;20558;-71
2022/11/10 09:08:21;;;;;;;13.33;5.20;;;12.00;83.40;;;;;;5026743;28;20454;-70
2022/11/10 09:11:08;;;;;;;10.70;5.30;;;12.00;83.40;;;;;;5029906;28;20517;-70
2022/11/10 09:13:54;;;;;;;12.43;5.07;;;12.10;83.50;;;;;;5028578;28;20475;-71
2022/11/10 09:16:40;;;;;;;10.67;5.37;;;12.10;83.50;;;;;;5025945;28;20551;-70
2022/11/10 09:19:27;;;;;;;24.40;5.40;;;12.20;83.60;;;;;;5028590;28;20565;-70
2022/11/10 09:22:15;;;;;;;19.30;6.27;;;12.20;83.60;;;;;;5028553;28;20454;-71
2022/11/10 09:25:01;;;;;;;11.97;4.80;;;12.30;83.60;;;;;;5025513;28;20526;-71
2022/11/10 09:27:48;;;;;;;17.10;5.10;;;12.30;83.70;;;;;;5030120;28;20450;-71
2022/11/10 09:30:34;;;;;;;10.90;4.83;;;12.40;83.70;;;;;;5021736;28;20474;-71
2022/11/10 09:33:21;;;;;;;15.77;5.07;;;12.40;83.60;;;;;;5023701;28;20479;-71
2022/11/10 09:36:08;;;;;;;13.57;5.07;;;12.40;83.50;;;;;;5026007;28;20600;-71
2022/11/10 09:38:56;;;;;;;14.67;5.20;;;12.40;83.50;;;;;;5026960;28;20524;-70
2022/11/10 09:41:44;;;;;;;6.50;4.10;;;12.50;83.60;;;;;;5028124;28;20446;-70
2022/11/10 09:44:35;;;;;;;14.97;4.50;;;12.50;83.70;;;;;;5023232;28;21046;-70
2022/11/10 09:47:27;;;;;;;13.73;4.73;;;12.50;83.70;;;;;;5025925;28;20463;-71
2022/11/10 09:50:41;;;;;;;13.70;4.80;;;12.50;83.70;;;;;;5029884;28;20474;-72
2022/11/10 09:53:33;;;;;;;11.07;4.40;;;12.60;83.70;;;;;;5028194;28;21162;-71
2022/11/10 09:56:32;;;;;;;11.20;4.40;;;12.60;83.70;;;;;;5026878;28;20474;-70
2022/11/10 09:59:25;;;;;;;14.00;4.47;;;12.70;83.60;;;;;;5022603;28;20462;-71
2022/11/10 10:02:21;;;;;;;10.53;3.90;;;12.70;83.60;;;;;;5022330;28;20467;-73
2022/11/10 10:05:36;;;;;;;13.70;5.00;;;12.70;83.70;;;;;;5024854;28;20454;-70
2022/11/10 10:08:30;;;;;;;13.70;4.80;;;12.70;83.70;;;;;;5034291;28;20458;-70
2022/11/10 10:11:29;;;;;;;12.30;4.20;;;12.70;83.70;;;;;;5020328;28;20471;-70
2022/11/10 10:14:35;;;;;;;10.77;4.30;;;12.70;83.70;;;;;;5021956;28;20472;-72
2022/11/10 10:17:28;;;;;;;13.20;4.47;;;12.70;83.70;;;;;;5028252;28;20479;-71
2022/11/10 10:20:19;;;;;;;10.70;3.87;;;12.70;83.80;;;;;;5020593;28;20469;-68
2022/11/10 10:23:16;;;;;;;14.27;4.80;;;12.80;83.70;;;;;;5016763;28;20807;-72
2022/11/10 10:26:03;;;;;;;16.70;5.57;;;12.80;83.70;;;;;;5023931;28;21027;-72
2022/11/10 10:28:52;;;;;;;9.40;3.90;;;12.80;83.70;;;;;;5025539;28;20935;-70
2022/11/10 10:31:42;;;;;;;9.00;4.10;;;12.80;83.70;;;;;;5024492;28;20460;-71
2022/11/10 10:34:33;;;;;;;12.63;4.10;;;12.90;83.70;;;;;;5022989;28;20475;-70
2022/11/10 10:37:25;;;;;;;11.23;4.63;;;13.00;83.70;;;;;;5025236;28;20492;-70
2022/11/10 10:40:16;;;;;;;10.47;3.87;;;13.00;83.70;;;;;;5023492;28;20998;-71
2022/11/10 10:43:03;;;;;;;12.03;4.27;;;13.00;83.70;;;;;;5022101;28;20494;-72
2022/11/10 10:46:06;;;;;;;9.73;3.77;;;13.10;83.70;;;;;;5027563;28;20479;-71
2022/11/10 10:49:08;;;;;;;8.27;3.03;;;13.10;83.60;;;;;;5023205;28;20454;-72
2022/11/10 10:52:16;;;;;;;14.53;4.03;;;13.20;83.70;;;;;;5018904;28;20815;-71
2022/11/10 10:55:07;;;;;;;11.20;3.83;;;13.20;83.70;;;;;;5026454;28;20925;-70
2022/11/10 10:57:59;;;;;;;15.83;4.67;;;13.20;83.70;;;;;;5027186;28;20474;-71
2022/11/10 11:00:48;;;;;;;12.20;3.57;;;13.20;83.60;;;;;;5025495;28;20459;-73
2022/11/10 11:03:42;;;;;;;9.90;3.67;;;13.30;83.60;;;;;;5019357;28;20451;-71
2022/11/10 11:06:29;;;;;;;12.30;3.10;;;13.30;83.60;;;;;;5019305;28;20477;-70
2022/11/10 11:09:18;;;;;;;10.33;3.87;;;13.30;83.60;;;;;;5018189;28;20459;-71
2022/11/10 11:12:06;;;;;;;9.03;3.40;;;13.30;83.60;;;;;;5028793;28;20459;-70
2022/11/10 11:15:11;;;;;;;11.33;3.63;;;13.40;83.50;;;;;;5019801;28;20474;-70
2022/11/10 11:18:01;;;;;;;8.97;2.83;;;13.40;83.60;;;;;;5023068;28;20468;-71
2022/11/10 11:20:57;;;;;;;15.20;3.03;;;13.40;83.60;;;;;;5019475;28;20547;-71
2022/11/10 11:23:59;;;;;;;10.50;3.37;;;13.40;83.50;;;;;;5020981;28;20455;-70
2022/11/10 11:26:52;;;;;;;9.50;3.17;;;13.40;83.50;;;;;;5024049;28;20525;-71
2022/11/10 11:29:53;;;;;;;15.20;3.17;;;13.50;83.40;;;;;;5018659;28;20564;-72
2022/11/10 11:33:06;;;;;;;15.43;3.80;;;13.50;83.30;;;;;;5021804;28;20548;-71
2022/11/10 11:36:00;;;;;;;13.50;3.07;;;13.50;83.30;;;;;;5023003;28;20495;-72
2022/11/10 11:38:58;;;;;;;11.20;3.33;;;13.50;83.30;;;;;;5025714;28;20447;-72
2022/11/10 11:41:50;;;;;;;8.83;3.40;;;13.50;83.20;;;;;;5020908;28;20486;-70
2022/11/10 11:44:58;;;;;;;11.17;2.60;;;13.50;83.20;;;;;;5020590;28;20584;-71
2022/11/10 11:48:00;;;;;;;9.27;2.60;;;13.50;83.10;;;;;;5017545;28;20833;-71
2022/11/10 11:50:53;;;;;;;11.00;2.90;;;13.50;83.00;;;;;;5029336;28;20450;-69
2022/11/10 11:53:54;;;;;;;7.77;2.30;;;13.50;83.00;;;;;;5027998;28;20829;-71
2022/11/10 11:56:43;;;;;;;10.13;2.60;;;13.50;83.00;;;;;;5032044;28;20564;-69
2022/11/10 11:59:43;;;;;;;14.57;2.57;;;13.50;83.00;;;;;;5030646;28;20451;-70
2022/11/10 12:02:46;;;;;;;7.80;1.90;;;13.50;82.90;;;;;;5028374;28;20818;-71
2022/11/10 12:05:50;;;;;;;12.67;2.43;;;13.50;82.70;;;;;;5030028;28;20828;-70
2022/11/10 12:08:43;;;;;;;9.80;1.70;;;13.50;82.60;;;;;;5027175;28;20458;-71
2022/11/10 12:11:46;;;;;;;9.90;3.20;;;13.50;82.60;;;;;;5022202;28;20465;-69
2022/11/10 12:14:53;;;;;;;10.93;1.80;;;13.50;82.40;;;;;;5030264;28;20506;-70
2022/11/10 12:17:48;;;;;;;6.30;1.80;;;13.50;82.40;;;;;;5030849;28;21211;-71
2022/11/10 12:20:45;;;;;;;10.40;1.97;;;13.60;82.40;;;;;;5027049;28;20956;-72
2022/11/10 12:23:40;;;;;;;10.37;1.80;;;13.60;82.10;;;;;;5021962;28;21297;-69
2022/11/10 12:26:44;;;;;;;5.57;1.40;;;13.70;82.10;;;;;;5024309;28;20471;-71
2022/11/10 12:29:35;;;;;;;7.53;1.90;;;13.70;81.90;;;;;;5023959;28;20479;-70
2022/11/10 12:32:27;;;;;;;11.70;2.10;;;13.70;81.80;;;;;;5029589;28;20451;-71
2022/11/10 12:35:20;;;;;;;6.43;1.60;;;13.80;81.70;;;;;;5024761;28;21231;-69
2022/11/10 12:38:12;;;;;;;8.23;2.20;;;13.80;81.60;;;;;;5026830;28;20582;-69
2022/11/10 12:41:06;;;;;;;9.03;1.83;;;13.80;81.40;;;;;;5026662;28;20520;-71
2022/11/10 12:44:06;;;;;;;4.37;1.60;;;13.80;81.30;;;;;;5026238;28;20474;-72
2022/11/10 12:46:57;;;;;;;8.33;2.00;;;13.80;81.10;;;;;;5025847;28;20553;-70
2022/11/10 12:49:53;;;;;;;12.53;1.80;;;13.90;80.90;;;;;;5031433;28;21217;-71
2022/11/10 12:52:43;;;;;;;11.37;2.27;;;13.90;80.80;;;;;;5024541;28;20467;-70
2022/11/10 12:55:36;;;;;;;9.50;1.53;;;13.90;80.60;;;;;;5025305;28;20845;-72
2022/11/10 12:58:25;;;;;;;5.27;1.23;;;13.90;80.50;;;;;;5027504;28;21023;-71
2022/11/10 13:01:16;;;;;;;6.70;1.50;;;13.90;80.30;;;;;;5026620;28;20459;-69
2022/11/10 13:04:04;;;;;;;6.43;1.50;;;13.90;80.30;;;;;;5025576;28;20455;-71
2022/11/10 13:06:55;;;;;;;7.57;1.40;;;13.90;80.10;;;;;;5026861;28;21004;-68
2022/11/10 13:09:43;;;;;;;7.47;1.90;;;13.90;80.00;;;;;;5026401;28;20602;-72
2022/11/10 13:12:30;;;;;;;8.23;2.30;;;13.90;79.90;;;;;;5026720;28;20447;-72
2022/11/10 13:15:48;;;;;;;10.30;1.80;;;13.90;79.80;;;;;;5027375;28;20478;-72
2022/11/10 13:19:00;;;;;;;6.87;1.43;;;13.90;79.70;;;;;;4991721;28;20450;-70
2022/11/10 13:22:11;;;;;;;7.63;1.60;;;13.90;79.60;;;;;;5027295;28;20458;-70
2022/11/10 13:25:36;;;;;;;4.60;1.30;;;13.90;79.50;;;;;;5025936;28;20987;-69
2022/11/10 13:29:11;;;;;;;10.53;2.40;;;13.90;79.50;;;;;;5027077;28;20818;-69
2022/11/10 13:31:59;;;;;;;7.13;1.60;;;14.00;79.40;;;;;;5025953;28;20597;-70
2022/11/10 13:34:47;;;;;;;9.40;1.87;;;14.00;79.30;;;;;;5025498;28;20579;-69
2022/11/10 13:37:49;;;;;;;5.53;1.70;;;14.10;79.20;;;;;;5027507;28;21334;-69
2022/11/10 13:40:38;;;;;;;5.67;1.40;;;14.10;79.00;;;;;;5024478;28;20979;-69
2022/11/10 13:43:26;;;;;;;7.10;1.80;;;14.10;78.90;;;;;;5024340;28;20550;-68
2022/11/10 13:46:14;;;;;;;6.43;1.80;;;14.10;78.80;;;;;;5027641;28;20462;-69
2022/11/10 13:49:36;;;;;;;6.03;1.13;;;14.10;78.70;;;;;;5026714;28;20570;-69
2022/11/10 13:52:33;;;;;;;7.63;1.40;;;14.20;78.30;;;;;;5025728;28;20583;-68
2022/11/10 13:55:30;;;;;;;7.57;1.50;;;14.20;78.20;;;;;;5020418;28;20626;-69
2022/11/10 13:58:25;;;;;;;5.33;1.30;;;14.20;78.10;;;;;;5021396;28;20867;-70
2022/11/10 14:01:24;;;;;;;9.13;1.50;;;14.20;78.00;;;;;;5032559;28;20595;-68
2022/11/10 14:04:40;;;;;;;6.53;1.40;;;14.20;77.90;;;;;;5036388;28;20450;-68
2022/11/10 14:07:31;;;;;;;7.20;1.57;;;14.20;77.90;;;;;;5019697;28;20462;-70
2022/11/10 14:10:26;;;;;;;7.70;1.43;;;14.20;77.70;;;;;;5025976;28;20462;-70
2022/11/10 14:13:18;;;;;;;5.23;1.43;;;14.20;77.70;;;;;;5024272;28;20463;-71
2022/11/10 14:16:15;;;;;;;11.83;1.63;;;14.20;77.70;;;;;;4983230;28;21399;-69
2022/11/10 14:19:17;;;;;;;7.67;2.00;;;14.30;77.50;;;;;;4962602;28;20493;-70
2022/11/10 14:22:14;;;;;;;8.53;1.37;;;14.30;77.40;;;;;;4966373;28;20465;-70
2022/11/10 14:25:05;;;;;;;7.80;1.43;;;14.20;77.30;;;;;;4970079;28;20477;-69
2022/11/10 14:27:52;;;;;;;8.00;1.20;;;14.20;77.20;;;;;;4968163;28;20457;-69
2022/11/10 14:30:50;;;;;;;8.00;1.50;;;14.20;77.20;;;;;;4964041;28;20876;-69
2022/11/10 14:33:37;;;;;;;6.00;1.37;;;14.20;77.00;;;;;;4958209;28;21309;-69
2022/11/10 14:36:25;;;;;;;9.47;2.07;;;14.20;77.00;;;;;;4961074;28;20478;-69
2022/11/10 14:39:15;;;;;;;5.27;1.27;;;14.10;76.80;;;;;;4966597;28;21026;-69
2022/11/10 14:42:05;;;;;;;6.03;1.30;;;14.20;76.80;;;;;;4972822;28;20477;-70
2022/11/10 14:45:06;;;;;;;5.63;1.37;;;14.10;76.70;;;;;;4964592;28;20458;-70
2022/11/10 14:47:54;;;;;;;5.93;1.40;;;14.10;76.60;;;;;;4964730;28;20447;-70